Time;durP1;ratioP1;P1;durP2;ratioP2;P2;SDS_P1;SDS_P2;PMS_P1;PMS_P2;Temp;Humidity;BMP_temperature;BMP_pressure;BME280_temperature;BME280_humidity;BME280_pressure;Samples;Min_cycle;Max_cycle;Signal;HPM_P1;HPM_P2
2024/05/06 00:01:17;;;;;;;3.63;2.78;;;;;;;5.84;58.60;100913.81;5361891;26;20492;-64
2024/05/06 00:03:43;;;;;;;6.03;2.15;;;;;;;5.82;59.02;100912.16;5356946;26;20630;-64
2024/05/06 00:06:14;;;;;;;4.10;2.70;;;;;;;5.73;59.15;100902.78;5353401;26;20016;-63
2024/05/06 00:08:39;;;;;;;3.38;2.08;;;;;;;5.85;58.71;100910.31;5357351;26;20040;-68
2024/05/06 00:11:05;;;;;;;3.22;2.30;;;;;;;5.82;58.76;100901.78;5356593;26;20004;-65
2024/05/06 00:13:31;;;;;;;3.75;2.20;;;;;;;5.76;58.68;100894.94;5370519;26;20012;-64
2024/05/06 00:15:57;;;;;;;3.65;1.85;;;;;;;5.81;58.18;100897.44;5357383;26;20014;-64
2024/05/06 00:18:22;;;;;;;3.50;1.95;;;;;;;5.80;58.81;100898.34;5363142;26;20003;-65
2024/05/06 00:20:48;;;;;;;3.83;1.35;;;;;;;5.80;58.40;100893.16;5355485;26;20004;-64
2024/05/06 00:23:13;;;;;;;6.32;2.03;;;;;;;5.72;58.24;100890.69;5363079;26;20015;-64
2024/05/06 00:25:39;;;;;;;2.88;1.70;;;;;;;5.71;58.01;100896.78;5366889;26;20007;-63
2024/05/06 00:28:04;;;;;;;3.13;1.55;;;;;;;5.56;58.41;100891.88;5350925;26;20007;-66
2024/05/06 00:30:30;;;;;;;2.75;2.20;;;;;;;5.44;58.71;100898.16;5360304;26;20004;-66
2024/05/06 00:32:55;;;;;;;3.72;1.80;;;;;;;5.37;58.92;100891.34;5359293;26;20481;-66
2024/05/06 00:35:22;;;;;;;3.28;2.08;;;;;;;5.33;58.96;100893.16;5356707;26;20106;-67
2024/05/06 00:37:47;;;;;;;4.50;2.28;;;;;;;5.24;58.90;100894.19;5364557;26;20012;-65
2024/05/06 00:40:17;;;;;;;3.67;1.75;;;;;;;5.19;59.16;100890.81;5358635;26;20605;-67
2024/05/06 00:42:42;;;;;;;4.38;2.20;;;;;;;5.28;59.11;100896.69;5392177;26;20047;-66
2024/05/06 00:45:08;;;;;;;4.43;2.28;;;;;;;5.25;58.81;100893.28;5351473;26;20795;-62
2024/05/06 00:47:33;;;;;;;2.85;2.15;;;;;;;5.30;58.76;100888.03;5350903;26;19999;-63
2024/05/06 00:49:59;;;;;;;4.18;2.65;;;;;;;5.30;59.04;100892.34;5357906;26;20420;-62
2024/05/06 00:52:25;;;;;;;2.30;1.77;;;;;;;5.37;58.65;100899.13;5354967;26;20508;-64
2024/05/06 00:54:50;;;;;;;2.78;2.08;;;;;;;5.33;58.61;100900.09;5359716;26;20353;-64
2024/05/06 00:57:16;;;;;;;2.38;1.52;;;;;;;5.25;58.73;100885.50;5329248;26;20449;-64
2024/05/06 00:59:42;;;;;;;6.30;2.60;;;;;;;5.27;58.68;100882.91;5380773;26;20022;-67
2024/05/06 01:02:09;;;;;;;4.07;2.10;;;;;;;5.23;58.79;100882.13;5325518;26;21382;-67
2024/05/06 01:04:36;;;;;;;2.42;1.65;;;;;;;5.21;58.65;100880.41;5342772;26;21057;-69
2024/05/06 01:07:02;;;;;;;3.78;2.17;;;;;;;5.16;58.40;100879.63;5352236;26;20651;-67
2024/05/06 01:09:27;;;;;;;3.90;2.03;;;;;;;5.14;58.36;100874.47;5363442;26;20003;-68
2024/05/06 01:11:53;;;;;;;3.28;2.53;;;;;;;5.12;58.87;100875.38;5341822;26;20008;-69
2024/05/06 01:14:18;;;;;;;3.25;2.63;;;;;;;5.10;58.72;100878.03;5361981;26;20472;-69
2024/05/06 01:16:44;;;;;;;4.75;2.75;;;;;;;5.11;58.89;100884.91;5370751;26;20011;-69
2024/05/06 01:19:09;;;;;;;6.40;3.15;;;;;;;5.01;58.68;100894.56;5353784;26;20031;-65
2024/05/06 01:21:44;;;;;;;3.58;1.92;;;;;;;4.93;58.91;100891.25;5361625;26;20756;-64
2024/05/06 01:24:10;;;;;;;4.85;2.88;;;;;;;4.83;59.21;100895.69;5337290;26;20003;-65
2024/05/06 01:26:35;;;;;;;7.75;3.20;;;;;;;4.75;59.36;100887.19;5365177;26;20012;-65
2024/05/06 01:29:01;;;;;;;6.10;2.97;;;;;;;4.72;59.29;100886.38;5353813;26;20144;-64
2024/05/06 01:31:28;;;;;;;3.50;2.63;;;;;;;4.66;59.44;100892.50;5364326;26;20026;-64
2024/05/06 01:33:53;;;;;;;3.03;2.08;;;;;;;4.79;59.40;100886.25;5353219;26;20015;-66
2024/05/06 01:36:19;;;;;;;4.38;3.00;;;;;;;4.91;59.11;100885.22;5360760;26;20007;-65
2024/05/06 01:38:45;;;;;;;3.60;2.30;;;;;;;4.94;58.69;100890.34;5362442;26;20011;-64
2024/05/06 01:41:10;;;;;;;6.13;3.22;;;;;;;4.81;58.67;100888.81;5357861;26;20015;-63
2024/05/06 01:43:35;;;;;;;4.38;3.35;;;;;;;4.82;59.07;100899.16;5359230;26;20369;-64
2024/05/06 01:46:01;;;;;;;7.22;2.97;;;;;;;4.74;59.28;100888.03;5357571;26;20007;-64
2024/05/06 01:48:27;;;;;;;5.35;3.25;;;;;;;4.79;59.44;100888.00;5361042;26;20011;-64
2024/05/06 01:50:52;;;;;;;2.90;2.38;;;;;;;4.83;59.26;100882.75;5357897;26;20003;-64
2024/05/06 01:53:18;;;;;;;3.58;2.28;;;;;;;4.82;59.08;100878.44;5358514;26;20751;-65
2024/05/06 01:55:43;;;;;;;3.83;2.50;;;;;;;4.76;58.89;100886.28;5363262;26;20670;-64
2024/05/06 01:58:08;;;;;;;5.35;3.08;;;;;;;4.62;59.24;100877.88;5356269;26;20368;-65
2024/05/06 02:00:34;;;;;;;5.53;3.08;;;;;;;4.62;59.22;100881.31;5355367;26;20007;-64
2024/05/06 02:02:59;;;;;;;4.30;2.33;;;;;;;4.72;58.99;100881.19;5355401;26;20003;-63
2024/05/06 02:05:25;;;;;;;4.85;2.95;;;;;;;4.72;58.94;100876.00;5355463;26;22241;-63
2024/05/06 02:07:50;;;;;;;4.75;2.80;;;;;;;4.63;59.16;100877.88;5360344;26;20018;-66
2024/05/06 02:10:16;;;;;;;3.92;3.05;;;;;;;4.61;59.49;100874.44;5356071;26;20015;-69
2024/05/06 02:12:41;;;;;;;6.53;3.38;;;;;;;4.72;58.90;100881.19;5333910;26;20000;-67
2024/05/06 02:15:07;;;;;;;4.47;3.13;;;;;;;4.68;58.88;100882.97;5349339;26;20213;-67
2024/05/06 02:17:32;;;;;;;4.47;2.72;;;;;;;4.75;58.73;100882.00;5352362;26;20004;-66
2024/05/06 02:19:58;;;;;;;4.50;2.88;;;;;;;4.70;58.70;100881.22;5354912;26;20007;-66
2024/05/06 02:22:23;;;;;;;5.53;3.60;;;;;;;4.71;58.78;100884.66;5359902;26;20043;-66
2024/05/06 02:24:49;;;;;;;6.55;3.75;;;;;;;4.73;58.88;100886.34;5368530;26;20294;-67
2024/05/06 02:27:14;;;;;;;4.90;3.33;;;;;;;4.67;58.81;100876.06;5350695;26;20018;-68
2024/05/06 02:29:40;;;;;;;7.10;3.92;;;;;;;4.69;58.97;100881.25;5364112;26;22504;-67
2024/05/06 02:32:06;;;;;;;10.45;4.65;;;;;;;4.67;59.32;100875.22;5349751;26;20744;-66
2024/05/06 02:34:31;;;;;;;6.78;4.72;;;;;;;4.67;59.72;100877.81;5362520;26;20016;-68
2024/05/06 02:36:57;;;;;;;5.65;4.15;;;;;;;4.75;59.36;100881.16;5339551;26;20956;-67
2024/05/06 02:39:22;;;;;;;7.70;4.63;;;;;;;4.79;59.34;100869.88;5363313;26;20640;-67
2024/05/06 02:41:48;;;;;;;6.97;4.57;;;;;;;4.81;58.80;100866.38;5365581;26;20004;-64
2024/05/06 02:44:13;;;;;;;9.70;5.28;;;;;;;4.80;59.08;100872.41;5340574;26;20400;-64
2024/05/06 02:46:39;;;;;;;7.68;4.55;;;;;;;4.82;58.96;100867.22;5364236;26;20008;-66
2024/05/06 02:49:04;;;;;;;9.55;4.63;;;;;;;4.85;58.89;100867.16;5354405;26;20021;-64
2024/05/06 02:51:29;;;;;;;8.63;4.32;;;;;;;4.77;58.64;100864.72;5364506;26;20003;-64
2024/05/06 02:53:55;;;;;;;7.97;4.25;;;;;;;4.70;58.79;100860.50;5322958;26;20114;-65
2024/05/06 02:56:20;;;;;;;5.57;3.80;;;;;;;4.64;58.89;100860.59;5361274;26;20014;-65
2024/05/06 02:58:46;;;;;;;8.20;5.25;;;;;;;4.73;58.76;100863.03;5355901;26;20369;-65
2024/05/06 03:01:12;;;;;;;8.18;5.70;;;;;;;4.70;59.01;100864.81;5329050;26;20357;-65
2024/05/06 03:03:37;;;;;;;12.00;6.18;;;;;;;4.68;59.10;100856.25;5359799;26;20003;-63
2024/05/06 03:06:05;;;;;;;7.55;5.35;;;;;;;4.65;59.00;100859.72;5357027;26;20007;-63
2024/05/06 03:08:31;;;;;;;8.35;5.05;;;;;;;4.67;58.73;100862.28;5356836;26;20046;-63
2024/05/06 03:10:58;;;;;;;8.07;4.60;;;;;;;4.60;58.78;100861.53;5370051;26;20007;-63
2024/05/06 03:13:23;;;;;;;7.47;5.03;;;;;;;4.55;58.76;100863.34;5360592;26;20532;-64
2024/05/06 03:15:49;;;;;;;8.95;5.15;;;;;;;4.55;59.14;100863.34;5357541;26;20055;-63
2024/05/06 03:18:14;;;;;;;7.85;5.13;;;;;;;4.56;58.78;100865.03;5327800;26;20663;-64
2024/05/06 03:20:39;;;;;;;5.05;4.10;;;;;;;4.59;58.73;100857.25;5359609;26;20022;-64
2024/05/06 03:23:05;;;;;;;7.95;5.07;;;;;;;4.58;58.64;100863.28;5359437;26;20011;-65
2024/05/06 03:25:30;;;;;;;7.03;4.20;;;;;;;4.52;58.65;100865.94;5360067;26;20018;-64
2024/05/06 03:27:56;;;;;;;7.20;4.93;;;;;;;4.50;58.60;100866.00;5359288;26;20019;-64
2024/05/06 03:30:21;;;;;;;7.25;5.40;;;;;;;4.43;58.52;100870.41;5357515;26;20015;-65
2024/05/06 03:32:47;;;;;;;6.68;4.75;;;;;;;4.40;58.80;100865.25;5362148;26;20007;-65
2024/05/06 03:35:12;;;;;;;6.45;4.20;;;;;;;4.44;59.02;100871.25;5350792;26;20015;-65
2024/05/06 03:37:39;;;;;;;7.63;5.25;;;;;;;4.46;59.04;100864.31;5358657;26;20108;-64
2024/05/06 03:40:05;;;;;;;8.35;5.40;;;;;;;4.50;59.19;100875.47;5321440;26;20003;-63
2024/05/06 03:42:31;;;;;;;7.78;4.13;;;;;;;4.44;59.09;100871.25;5359718;26;20109;-63
2024/05/06 03:44:56;;;;;;;6.93;4.90;;;;;;;4.37;58.97;100870.47;5359468;26;20004;-63
2024/05/06 03:47:22;;;;;;;7.18;4.95;;;;;;;4.40;58.86;100865.25;5332265;26;20045;-64
2024/05/06 03:49:48;;;;;;;6.75;4.70;;;;;;;4.48;58.61;100877.25;5363233;26;20016;-63
2024/05/06 03:52:15;;;;;;;8.43;5.85;;;;;;;4.42;58.90;100867.81;5360440;26;20298;-63
2024/05/06 03:54:41;;;;;;;9.20;5.85;;;;;;;4.42;58.95;100873.84;5365941;26;20540;-66
2024/05/06 03:57:06;;;;;;;7.10;5.57;;;;;;;4.50;58.96;100872.88;5355018;26;20023;-66
2024/05/06 03:59:32;;;;;;;8.25;5.57;;;;;;;4.49;59.11;100873.78;5370241;26;20019;-64
2024/05/06 04:01:57;;;;;;;8.95;5.45;;;;;;;4.48;59.04;100867.75;5363102;26;21199;-64
2024/05/06 04:04:23;;;;;;;6.75;4.80;;;;;;;4.53;59.08;100870.28;5357263;26;20036;-66
2024/05/06 04:06:48;;;;;;;9.48;5.47;;;;;;;4.62;58.99;100872.72;5357713;26;20033;-64
2024/05/06 04:09:14;;;;;;;9.38;5.55;;;;;;;4.59;59.18;100880.53;5353407;26;20427;-63
2024/05/06 04:11:39;;;;;;;8.02;6.07;;;;;;;4.66;59.05;100874.38;5361110;26;20008;-64
2024/05/06 04:14:04;;;;;;;8.63;5.03;;;;;;;4.63;59.16;100888.22;5359221;26;20026;-64
2024/05/06 04:16:30;;;;;;;9.35;5.78;;;;;;;4.64;59.31;100876.13;5366756;26;20000;-66
2024/05/06 04:18:56;;;;;;;8.68;5.53;;;;;;;4.69;59.18;100876.91;5365001;26;20012;-64
2024/05/06 04:21:21;;;;;;;12.77;6.55;;;;;;;4.60;59.60;100867.53;5362388;26;20012;-65
2024/05/06 04:29:15;;;;;;;7.93;5.18;;;;;;;4.84;59.26;100878.41;5360426;26;20079;-64
2024/05/06 04:31:40;;;;;;;10.10;5.55;;;;;;;4.81;59.23;100881.91;5363600;26;20327;-65
2024/05/06 04:34:08;;;;;;;11.40;6.47;;;;;;;4.87;59.62;100880.09;5359119;26;20376;-66
2024/05/06 04:36:34;;;;;;;8.25;5.97;;;;;;;5.00;59.58;100882.50;5366778;26;20003;-66
2024/05/06 04:38:59;;;;;;;7.65;5.50;;;;;;;5.12;59.47;100884.00;5360900;26;20476;-64
2024/05/06 04:41:25;;;;;;;13.20;5.95;;;;;;;5.21;59.24;100883.00;5356344;26;21089;-63
2024/05/06 04:43:50;;;;;;;8.85;4.60;;;;;;;5.20;59.14;100889.06;5358081;26;20147;-64
2024/05/06 04:46:16;;;;;;;10.57;5.78;;;;;;;5.21;59.59;100889.06;5356337;26;20502;-65
2024/05/06 04:48:41;;;;;;;9.30;6.07;;;;;;;5.28;59.49;100883.75;5360916;26;20022;-64
2024/05/06 04:51:07;;;;;;;9.55;6.47;;;;;;;5.36;59.47;100890.50;5360013;26;20030;-65
2024/05/06 04:53:32;;;;;;;10.32;6.15;;;;;;;5.51;59.54;100904.09;5360626;26;20008;-65
2024/05/06 04:55:58;;;;;;;11.40;6.88;;;;;;;5.57;59.45;100894.47;5361620;26;20991;-66
2024/05/06 04:58:24;;;;;;;9.57;5.90;;;;;;;5.84;59.51;100897.41;5353492;26;20028;-64
2024/05/06 05:00:49;;;;;;;12.00;6.15;;;;;;;6.08;59.53;100885.66;5365074;26;20012;-64
2024/05/06 05:03:15;;;;;;;14.30;7.78;;;;;;;7.12;59.81;100903.22;5354331;26;20412;-66
2024/05/06 05:05:40;;;;;;;13.02;7.38;;;;;;;7.63;57.22;100901.94;5364856;26;20421;-65
2024/05/06 05:08:06;;;;;;;12.73;7.95;;;;;;;7.30;56.52;100902.75;5362095;26;20008;-65
2024/05/06 05:10:32;;;;;;;10.45;7.10;;;;;;;7.14;56.68;100901.44;5330329;26;19996;-66
2024/05/06 05:12:57;;;;;;;9.60;6.90;;;;;;;7.07;56.78;100900.72;5364110;26;20612;-64
2024/05/06 05:15:24;;;;;;;8.30;6.35;;;;;;;7.05;56.99;100901.66;5351430;26;20849;-63
2024/05/06 05:17:49;;;;;;;11.07;6.80;;;;;;;7.16;57.15;100899.66;5362034;26;19999;-64
2024/05/06 05:20:15;;;;;;;8.40;5.82;;;;;;;7.26;57.59;100898.50;5339573;26;20022;-64
2024/05/06 05:22:40;;;;;;;10.27;6.45;;;;;;;7.91;58.60;100904.59;5369000;26;20019;-63
2024/05/06 05:25:06;;;;;;;13.32;7.68;;;;;;;10.47;54.43;100892.56;5355020;26;20592;-65
2024/05/06 05:27:31;;;;;;;15.60;8.32;;;;;;;13.11;48.99;100893.94;5332065;26;20406;-63
2024/05/06 05:29:57;;;;;;;13.68;7.25;;;;;;;15.58;40.91;100884.69;5359185;26;20081;-65
2024/05/06 05:32:22;;;;;;;10.07;6.13;;;;;;;17.28;35.97;100889.69;5355000;26;20011;-64
2024/05/06 05:34:48;;;;;;;6.63;4.78;;;;;;;17.79;36.95;100874.69;5359326;26;20015;-66
2024/05/06 05:37:14;;;;;;;11.25;5.78;;;;;;;18.10;33.84;100882.25;5357938;26;20003;-65
2024/05/06 05:39:40;;;;;;;9.77;5.55;;;;;;;19.14;33.28;100885.13;5358701;26;20395;-63
2024/05/06 05:42:05;;;;;;;6.05;4.93;;;;;;;19.83;32.90;100876.31;5360923;26;20423;-64
2024/05/06 05:44:31;;;;;;;5.88;4.63;;;;;;;20.38;30.28;100874.53;5360547;26;20008;-65
2024/05/06 05:46:57;;;;;;;6.20;5.00;;;;;;;20.32;29.80;100877.69;5357405;26;20003;-65
2024/05/06 05:49:23;;;;;;;8.43;4.47;;;;;;;20.70;30.15;100876.34;5355322;26;20046;-65
2024/05/06 05:51:50;;;;;;;4.80;3.65;;;;;;;21.49;28.79;100873.25;5362280;26;20012;-63
2024/05/06 05:54:16;;;;;;;7.40;4.38;;;;;;;21.48;27.54;100876.91;5353495;26;20095;-63
2024/05/06 05:56:41;;;;;;;5.15;4.60;;;;;;;21.33;28.57;100869.25;5363404;26;20415;-65
2024/05/06 05:59:07;;;;;;;6.03;3.25;;;;;;;21.55;29.54;100878.88;5357835;26;20403;-64
2024/05/06 06:01:32;;;;;;;3.78;2.78;;;;;;;21.73;28.66;100876.44;5355769;26;20057;-64
2024/05/06 06:03:57;;;;;;;4.88;2.88;;;;;;;21.96;26.92;100871.75;5360185;26;20015;-64
2024/05/06 06:06:23;;;;;;;4.65;2.03;;;;;;;22.20;27.85;100877.72;5351735;26;20019;-64
2024/05/06 06:08:48;;;;;;;3.83;2.42;;;;;;;22.03;27.20;100885.38;5362617;26;20457;-64
2024/05/06 06:11:14;;;;;;;3.85;1.90;;;;;;;21.65;25.92;100889.59;5351920;26;20011;-65
2024/05/06 06:13:42;;;;;;;2.40;2.17;;;;;;;22.75;26.63;100892.22;5353133;26;20381;-65
2024/05/06 06:16:09;;;;;;;2.22;1.52;;;;;;;23.66;25.61;100889.09;5352334;26;20015;-65
2024/05/06 06:18:35;;;;;;;2.30;1.92;;;;;;;24.14;23.93;100892.50;5332009;26;20004;-64
2024/05/06 06:21:04;;;;;;;2.92;1.63;;;;;;;23.70;23.84;100892.28;5363096;26;20011;-66
2024/05/06 06:23:30;;;;;;;2.15;1.30;;;;;;;23.64;24.74;100899.06;5349829;26;20015;-66
2024/05/06 06:25:55;;;;;;;7.20;1.88;;;;;;;24.62;23.03;100894.88;5363612;26;20014;-66
2024/05/06 06:28:21;;;;;;;4.18;1.42;;;;;;;24.24;24.18;100883.44;5351713;26;20139;-66
2024/05/06 06:30:46;;;;;;;2.97;1.00;;;;;;;25.28;21.92;100884.66;5369995;26;20007;-67
2024/05/06 06:33:12;;;;;;;1.95;0.80;;;;;;;25.91;21.83;100883.50;5358279;26;20085;-66
2024/05/06 06:35:37;;;;;;;4.70;1.00;;;;;;;26.16;21.53;100881.75;5354965;26;20003;-64
2024/05/06 06:38:06;;;;;;;4.45;0.95;;;;;;;25.40;21.56;100894.13;5360202;26;20390;-67
2024/05/06 06:40:32;;;;;;;1.70;0.93;;;;;;;25.75;21.58;100886.94;5348885;26;20015;-65
2024/05/06 06:42:57;;;;;;;6.78;0.80;;;;;;;25.80;21.21;100895.34;5344886;26;20088;-70
2024/05/06 06:45:23;;;;;;;2.05;0.52;;;;;;;26.28;20.65;100891.13;5352875;26;20014;-68
2024/05/06 06:47:48;;;;;;;1.15;0.50;;;;;;;25.74;20.22;100898.66;5356295;26;20003;-66
2024/05/06 06:50:14;;;;;;;1.45;0.60;;;;;;;25.15;22.01;100908.31;5352788;26;20091;-66
2024/05/06 06:52:39;;;;;;;1.85;0.43;;;;;;;25.96;20.60;100901.75;5335213;26;20787;-66
2024/05/06 06:55:05;;;;;;;2.00;0.88;;;;;;;26.43;20.00;100906.59;5328689;26;20545;-66
2024/05/06 06:57:31;;;;;;;3.28;0.73;;;;;;;25.65;21.17;100910.34;5342096;26;20057;-66
2024/05/06 06:59:57;;;;;;;3.67;1.55;;;;;;;26.29;20.51;100908.06;5363828;26;20022;-65
2024/05/06 07:02:23;;;;;;;2.72;0.93;;;;;;;25.38;22.49;100912.16;5318128;26;20077;-66
2024/05/06 07:04:48;;;;;;;2.75;0.77;;;;;;;25.50;21.90;100910.03;5368881;26;20040;-65
2024/05/06 07:07:14;;;;;;;2.75;0.70;;;;;;;26.47;19.96;100910.63;5353200;26;20023;-66
2024/05/06 07:09:39;;;;;;;1.10;0.82;;;;;;;25.73;21.08;100915.69;5362067;26;20018;-66
2024/05/06 07:12:07;;;;;;;2.50;1.08;;;;;;;26.11;20.50;100905.50;5357677;26;20080;-65
2024/05/06 07:14:33;;;;;;;2.45;0.80;;;;;;;27.25;20.32;100903.91;5356831;26;20033;-68
2024/05/06 07:16:58;;;;;;;1.95;0.90;;;;;;;26.89;19.84;100905.13;5361735;26;20414;-65
2024/05/06 07:19:24;;;;;;;2.63;1.27;;;;;;;25.95;19.57;100908.94;5351036;26;20430;-65
2024/05/06 07:21:50;;;;;;;1.23;0.88;;;;;;;25.85;19.83;100903.72;5364502;26;20007;-65
2024/05/06 07:24:17;;;;;;;1.20;0.88;;;;;;;25.37;21.31;100907.78;5353803;26;20011;-68
2024/05/06 07:26:44;;;;;;;2.22;1.25;;;;;;;26.10;20.77;100903.84;5338093;26;20011;-69
2024/05/06 07:29:09;;;;;;;2.40;1.25;;;;;;;26.45;20.45;100907.25;5359297;26;20703;-69
2024/05/06 07:31:35;;;;;;;1.30;0.90;;;;;;;25.77;20.12;100902.84;5357703;26;20061;-66
2024/05/06 07:34:00;;;;;;;2.90;1.33;;;;;;;26.34;20.10;100902.22;5359445;26;19999;-63
2024/05/06 07:36:26;;;;;;;1.23;0.80;;;;;;;25.93;20.89;100902.91;5357064;26;20018;-65
2024/05/06 07:38:51;;;;;;;3.55;1.35;;;;;;;25.28;21.25;100897.22;5366723;26;20018;-65
2024/05/06 07:41:17;;;;;;;1.30;0.65;;;;;;;26.88;20.09;100905.28;5353878;26;20011;-64
2024/05/06 07:43:42;;;;;;;1.95;1.20;;;;;;;26.59;20.55;100903.94;5363100;26;20000;-64
2024/05/06 07:46:08;;;;;;;3.63;1.15;;;;;;;26.39;20.28;100907.91;5357833;26;20621;-64
2024/05/06 07:48:33;;;;;;;5.15;0.70;;;;;;;26.96;20.13;100901.75;5345249;26;20538;-64
2024/05/06 07:50:58;;;;;;;2.70;0.70;;;;;;;27.31;19.70;100897.88;5333360;26;20061;-65
2024/05/06 07:53:25;;;;;;;3.85;1.42;;;;;;;27.29;19.31;100899.88;5354024;26;20003;-64
2024/05/06 07:55:51;;;;;;;3.63;0.95;;;;;;;27.78;18.75;100906.97;5334879;26;20003;-64
2024/05/06 07:58:17;;;;;;;1.92;1.50;;;;;;;26.90;20.29;100904.09;5350638;26;20230;-64
2024/05/06 08:00:43;;;;;;;2.33;0.88;;;;;;;27.46;19.41;100898.00;5363788;26;19999;-64
2024/05/06 08:03:09;;;;;;;2.58;1.10;;;;;;;27.49;19.07;100898.47;5355371;26;20449;-64
2024/05/06 08:05:35;;;;;;;3.95;1.05;;;;;;;27.65;19.17;100904.84;5385808;26;20014;-63
2024/05/06 08:08:01;;;;;;;3.03;1.15;;;;;;;27.85;18.94;100906.13;5357912;26;20039;-64
2024/05/06 08:10:26;;;;;;;4.57;1.60;;;;;;;25.71;20.35;100909.69;5350342;26;20000;-65
2024/05/06 08:12:52;;;;;;;3.10;1.45;;;;;;;26.08;20.22;100905.81;5359830;26;20007;-63
2024/05/06 08:15:17;;;;;;;2.13;1.33;;;;;;;26.08;20.69;100900.47;5353356;26;20146;-64
2024/05/06 08:17:43;;;;;;;3.78;1.75;;;;;;;26.56;19.58;100904.25;5356004;26;20107;-64
2024/05/06 08:20:09;;;;;;;2.20;1.60;;;;;;;26.20;20.63;100909.91;5358070;26;20011;-64
2024/05/06 08:22:35;;;;;;;2.05;1.92;;;;;;;27.42;19.23;100900.19;5352375;26;20004;-64
2024/05/06 08:25:00;;;;;;;2.13;1.48;;;;;;;27.05;19.77;100906.94;5366797;26;20007;-65
2024/05/06 08:27:26;;;;;;;0.85;0.65;;;;;;;27.20;18.74;100903.59;5344304;26;20004;-66
2024/05/06 08:29:51;;;;;;;1.77;1.13;;;;;;;26.49;21.24;100913.94;5359346;26;20025;-65
2024/05/06 08:32:20;;;;;;;2.92;1.15;;;;;;;28.10;18.19;100898.75;5356887;26;20004;-65
2024/05/06 08:34:45;;;;;;;1.30;0.70;;;;;;;28.20;19.70;100895.84;5366133;26;20802;-65
2024/05/06 08:37:11;;;;;;;1.90;1.35;;;;;;;27.73;19.42;100902.13;5358039;26;20003;-65
2024/05/06 08:39:36;;;;;;;3.75;1.67;;;;;;;27.91;18.45;100900.00;5358738;26;20011;-63
2024/05/06 08:42:02;;;;;;;3.15;1.35;;;;;;;25.14;20.79;100901.31;5362788;26;20612;-64
2024/05/06 08:44:32;;;;;;;2.95;1.60;;;;;;;24.75;22.87;100902.50;5385142;26;21072;-64
2024/05/06 08:47:01;;;;;;;6.13;1.63;;;;;;;23.47;24.40;100899.84;5367453;26;20003;-66
2024/05/06 08:49:28;;;;;;;2.85;1.42;;;;;;;22.31;24.81;100901.56;5356903;26;20011;-65
2024/05/06 08:51:54;;;;;;;2.95;1.67;;;;;;;21.67;25.31;100903.59;5348684;26;20616;-64
2024/05/06 08:54:20;;;;;;;4.07;1.88;;;;;;;20.77;27.22;100909.38;5361452;26;20007;-64
2024/05/06 08:56:48;;;;;;;2.80;1.77;;;;;;;21.97;26.28;100905.38;5360476;26;20755;-64
2024/05/06 08:59:24;;;;;;;4.43;1.90;;;;;;;22.95;24.12;100901.03;5360784;26;20537;-66
2024/05/06 09:01:50;;;;;;;2.15;1.50;;;;;;;23.56;23.08;100901.63;5364038;26;20007;-65
2024/05/06 09:04:16;;;;;;;3.72;1.80;;;;;;;23.90;23.53;100909.09;5363899;26;20026;-65
2024/05/06 09:06:43;;;;;;;1.90;1.55;;;;;;;22.89;23.87;100911.41;5347987;26;20607;-64
2024/05/06 09:09:09;;;;;;;3.13;1.30;;;;;;;22.64;24.18;100908.31;5368583;26;20522;-64
2024/05/06 09:11:36;;;;;;;3.10;1.70;;;;;;;20.98;25.27;100908.63;5356987;26;19999;-65
2024/05/06 09:14:01;;;;;;;2.47;2.10;;;;;;;20.87;28.06;100910.34;5349969;26;20076;-64
2024/05/06 09:16:27;;;;;;;2.75;2.42;;;;;;;20.88;26.72;100914.69;5337369;26;20015;-64
2024/05/06 09:18:53;;;;;;;3.55;1.55;;;;;;;21.27;27.76;100914.97;5357800;26;20007;-63
2024/05/06 09:21:18;;;;;;;3.78;1.58;;;;;;;20.93;27.56;100912.50;5356886;26;20003;-65
2024/05/06 09:23:44;;;;;;;5.32;2.53;;;;;;;19.32;29.63;100909.38;5350021;26;20825;-64
2024/05/06 09:26:13;;;;;;;2.95;1.65;;;;;;;17.52;30.75;100913.63;5363238;26;20028;-63
2024/05/06 09:28:38;;;;;;;3.63;2.00;;;;;;;16.95;33.32;100915.59;5344179;26;24116;-65
2024/05/06 09:31:04;;;;;;;3.80;2.58;;;;;;;16.96;32.56;100917.31;5365859;26;20791;-64
2024/05/06 09:33:29;;;;;;;5.72;2.67;;;;;;;16.97;32.95;100920.78;5345648;26;20003;-63
2024/05/06 09:36:00;;;;;;;1.98;1.77;;;;;;;17.13;31.97;100924.09;5366360;26;20015;-63
2024/05/06 09:38:28;;;;;;;5.07;2.13;;;;;;;17.32;33.71;100923.72;5366839;26;21095;-64
2024/05/06 09:41:01;;;;;;;3.25;2.13;;;;;;;16.98;31.68;100919.88;5335682;26;20003;-64
2024/05/06 09:43:31;;;;;;;7.80;2.00;;;;;;;16.67;32.13;100928.91;5348359;26;20022;-63
2024/05/06 09:45:59;;;;;;;2.80;2.60;;;;;;;16.70;31.55;100926.91;5361408;26;20007;-65
2024/05/06 09:48:30;;;;;;;3.67;2.75;;;;;;;17.04;32.03;100927.34;5341351;26;20026;-65
2024/05/06 09:50:58;;;;;;;5.03;2.72;;;;;;;17.15;32.22;100932.75;5365068;26;20018;-64
2024/05/06 09:53:25;;;;;;;2.97;2.13;;;;;;;17.94;32.46;100933.56;5353069;26;20012;-64
2024/05/06 09:55:51;;;;;;;1.63;1.50;;;;;;;19.03;29.98;100933.66;5361900;26;20078;-64
2024/05/06 09:58:17;;;;;;;3.15;2.55;;;;;;;19.10;28.70;100931.41;5361655;26;20096;-63
2024/05/06 10:00:44;;;;;;;5.03;1.20;;;;;;;18.29;29.09;100945.25;5340922;26;20020;-65
2024/05/06 10:03:09;;;;;;;4.30;1.20;;;;;;;18.08;29.80;100943.16;5365039;26;19999;-63
2024/05/06 10:05:39;;;;;;;2.80;1.52;;;;;;;17.76;30.32;100941.00;5317531;26;20022;-64
2024/05/06 10:08:09;;;;;;;4.97;1.35;;;;;;;17.36;30.25;100942.84;5363617;26;20007;-65
2024/05/06 10:10:35;;;;;;;1.77;1.25;;;;;;;17.24;30.78;100947.16;5347169;26;20003;-63
2024/05/06 10:13:08;;;;;;;4.25;1.50;;;;;;;17.22;31.57;100943.75;5348883;26;19999;-62
2024/05/06 10:15:45;;;;;;;4.95;1.55;;;;;;;18.27;29.70;100937.44;5330344;26;20018;-63
2024/05/06 10:18:14;;;;;;;2.63;2.08;;;;;;;19.27;30.58;100948.66;5365630;26;20030;-64
2024/05/06 10:20:40;;;;;;;2.90;1.73;;;;;;;19.52;30.62;100942.31;5348451;26;21707;-64
2024/05/06 10:23:06;;;;;;;3.63;1.33;;;;;;;19.50;30.43;100939.78;5362641;26;21021;-64
2024/05/06 10:25:31;;;;;;;2.15;1.80;;;;;;;18.51;30.77;100941.91;5341892;26;20024;-64
2024/05/06 10:27:57;;;;;;;4.93;3.60;;;;;;;17.74;32.23;100936.75;5390733;26;20008;-65
2024/05/06 10:30:24;;;;;;;2.40;1.38;;;;;;;17.31;31.78;100942.31;5352295;26;20062;-63
2024/05/06 10:32:54;;;;;;;2.47;1.05;;;;;;;16.93;32.17;100945.69;5352493;26;20011;-65
2024/05/06 10:35:20;;;;;;;2.00;1.50;;;;;;;17.12;32.63;100946.19;5323311;26;20030;-64
2024/05/06 10:37:53;;;;;;;3.33;2.50;;;;;;;16.66;35.66;100945.69;5347758;26;20011;-63
2024/05/06 10:40:18;;;;;;;4.47;2.55;;;;;;;17.28;34.12;100947.81;5369943;26;20735;-64
2024/05/06 10:42:45;;;;;;;4.50;2.75;;;;;;;17.83;33.33;100949.34;5319780;26;20874;-64
2024/05/06 10:45:12;;;;;;;6.28;3.50;;;;;;;17.70;32.43;100949.34;5358795;26;20039;-63
2024/05/06 10:47:38;;;;;;;4.68;2.33;;;;;;;17.40;33.14;100952.25;5377833;26;20003;-65
2024/05/06 10:50:04;;;;;;;4.90;2.65;;;;;;;17.44;32.65;100946.63;5354655;26;20011;-64
2024/05/06 10:52:30;;;;;;;5.22;2.53;;;;;;;17.30;33.31;100943.25;5350099;26;20606;-63
2024/05/06 10:54:56;;;;;;;4.20;2.15;;;;;;;17.70;32.99;100944.06;5356731;26;20301;-65
2024/05/06 10:57:23;;;;;;;2.50;1.30;;;;;;;19.07;31.49;100939.56;5356121;26;20008;-64
2024/05/06 10:59:48;;;;;;;4.72;3.05;;;;;;;19.46;32.26;100940.97;5353237;26;20025;-63
2024/05/06 11:02:16;;;;;;;5.13;2.40;;;;;;;19.39;31.16;100936.25;5356338;26;20008;-64
2024/05/06 11:04:42;;;;;;;4.00;1.98;;;;;;;18.18;31.84;100946.00;5348055;26;20022;-63
2024/05/06 11:07:08;;;;;;;2.85;2.38;;;;;;;17.36;33.88;100951.63;5359802;26;20241;-64
2024/05/06 11:09:44;;;;;;;4.53;2.10;;;;;;;17.22;32.85;100939.34;5346575;26;20008;-65
2024/05/06 11:12:15;;;;;;;4.57;1.98;;;;;;;17.71;32.73;100947.53;5359631;26;20798;-62
2024/05/06 11:14:50;;;;;;;5.57;2.50;;;;;;;18.16;33.11;100947.91;5334496;26;20000;-65
2024/05/06 11:17:19;;;;;;;4.10;3.53;;;;;;;18.95;32.65;100933.38;5343564;26;20192;-64
2024/05/06 11:19:49;;;;;;;4.45;2.97;;;;;;;18.73;32.68;100936.75;5342377;26;20019;-64
2024/05/06 11:22:20;;;;;;;3.72;2.72;;;;;;;18.79;31.47;100944.25;5355434;26;20019;-64
2024/05/06 11:24:46;;;;;;;4.77;2.70;;;;;;;18.71;31.33;100938.66;5321614;26;20003;-64
2024/05/06 11:27:12;;;;;;;5.72;2.45;;;;;;;19.28;29.49;100929.16;5359246;26;20003;-63
2024/05/06 11:29:40;;;;;;;3.90;2.63;;;;;;;19.55;30.95;100930.63;5350199;26;20023;-63